Item Display Status Serial CT Sensor

Mooring Depth: 1 m

 

Deployed Sensor

  • Serial Number: 12489
  • NDBC Property Number: 38947
  • Start Date: 3/30/2020 (09:07:55 Z)
  • End Date: 11/13/2021 (20:40:00 Z)
Water Temperature [°C]     6 entries per hour
Showing data from 10/23/2021 (06:50:00 Z) to 10/22/2021 (00:00:01 Z)
Previous Next [ Day | 3-Days | 7-Days ]
First Last
Prev [ Day | 3-Days | 7-Days ] Next
First Last

Start Time:     :
End Time:     :     
Time (in GMT) :00 :50 :40 :30 :20 :10
Previous Next [ Day | 3-Days | 7-Days ]
First Last
Prev [ Day | 3-Days | 7-Days ] Next
First Last


123 => good data
MM => data is determined as missing
-- => data not received/configured
Back to Top Back to Top
10/23/2021 07:00 to 6:10 -- 22.796 22.805 22.799 22.799 22.811
10/23/2021 06:00 to 5:10 22.796 22.807 22.809 22.806 22.818 22.821
10/23/2021 05:00 to 4:10 22.814 22.813 22.812 22.806 22.809 22.819
10/23/2021 04:00 to 3:10 22.824 22.832 22.822 22.820 22.833 22.835
10/23/2021 03:00 to 2:10 22.839 22.840 22.870 22.887 22.893 22.880
10/23/2021 02:00 to 1:10 22.861 22.877 22.887 22.895 22.921 22.918
10/23/2021 01:00 to 0:10 22.914 22.934 22.951 22.935 22.954 22.958
10/23/2021 00:00 to 23:10 22.941 22.982 22.988 22.978 23.000 22.989
10/22/2021 23:00 to 22:10 22.961 22.990 22.960 23.026 22.997 23.008
10/22/2021 22:00 to 21:10 22.973 22.981 22.988 22.968 22.972 22.970
10/22/2021 21:00 to 20:10 22.936 22.944 22.960 22.985 22.958 22.916
10/22/2021 20:00 to 19:10 22.919 22.918 22.932 22.913 22.909 22.913
10/22/2021 19:00 to 18:10 22.881 22.877 22.870 22.862 22.832 22.827
10/22/2021 18:00 to 17:10 22.854 22.812 22.795 22.797 22.767 22.774
10/22/2021 17:00 to 16:10 22.762 22.725 22.729 22.744 22.725 22.702
10/22/2021 16:00 to 15:10 22.703 22.682 22.693 22.669 22.676 22.664
10/22/2021 15:00 to 14:10 22.660 22.652 22.650 22.645 22.642 22.638
10/22/2021 14:00 to 13:10 22.636 22.637 22.635 22.631 22.635 22.628
10/22/2021 13:00 to 12:10 22.631 22.637 22.643 22.639 22.645 22.629
10/22/2021 12:00 to 11:10 22.632 22.630 22.636 22.634 22.638 22.626
10/22/2021 11:00 to 10:10 22.633 22.634 22.644 22.652 22.648 22.649
10/22/2021 10:00 to 9:10 22.662 22.656 22.654 22.666 22.662 22.646
10/22/2021 09:00 to 8:10 22.649 22.646 22.646 22.647 22.657 22.661
10/22/2021 08:00 to 7:10 22.662 22.662 22.661 22.658 22.654 22.661
10/22/2021 07:00 to 6:10 22.648 22.661 22.657 22.661 22.673 22.667
10/22/2021 06:00 to 5:10 22.673 22.670 22.673 22.669 22.640 22.644
10/22/2021 05:00 to 4:10 22.652 22.652 22.648 22.631 22.644 22.641
10/22/2021 04:00 to 3:10 22.642 22.639 22.629 22.637 22.628 22.631
10/22/2021 03:00 to 2:10 22.639 22.651 22.643 22.648 22.658 22.650
10/22/2021 02:00 to 1:10 22.668 22.680 22.688 22.692 22.689 22.715
10/22/2021 01:00 to 0:10 22.689 22.692 22.694 22.693 22.706 22.703

 

 

 

Conductivity [S/m]     6 entries per hour
Showing data from 10/23/2021 (06:50:00 Z) to 10/22/2021 (00:00:01 Z)
Previous Next [ Day | 3-Days | 7-Days ]
First Last
Prev [ Day | 3-Days | 7-Days ] Next
First Last

Start Time:     :
End Time:     :     
Time (in GMT) :00 :50 :40 :30 :20 :10
Previous Next [ Day | 3-Days | 7-Days ]
First Last
Prev [ Day | 3-Days | 7-Days ] Next
First Last


123 => good data
MM => data is determined as missing
-- => data not received/configured
Back to Top Back to Top
10/23/2021 07:00 to 6:10 -- 5.07899 5.07975 5.07930 5.07936 5.08060
10/23/2021 06:00 to 5:10 5.07925 5.07996 5.08020 5.07992 5.08113 5.08160
10/23/2021 05:00 to 4:10 5.08072 5.08063 5.08059 5.08007 5.08043 5.08130
10/23/2021 04:00 to 3:10 5.08191 5.08248 5.08125 5.08106 5.08252 5.08274
10/23/2021 03:00 to 2:10 5.08352 5.08334 5.08653 5.08837 5.08918 5.08735
10/23/2021 02:00 to 1:10 5.08558 5.08734 5.08825 5.08923 5.09189 5.09146
10/23/2021 01:00 to 0:10 5.09112 5.09312 5.09517 5.09327 5.09518 5.09567
10/23/2021 00:00 to 23:10 5.09409 5.09818 5.09881 5.09788 5.10012 5.09882
10/22/2021 23:00 to 22:10 5.09593 5.09918 5.09584 5.10275 5.09973 5.10035
10/22/2021 22:00 to 21:10 5.09724 5.09756 5.09843 5.09635 5.09709 5.09672
10/22/2021 21:00 to 20:10 5.09342 5.09404 5.09565 5.09794 5.09503 5.09132
10/22/2021 20:00 to 19:10 5.09106 5.09108 5.09196 5.09051 5.09016 5.08974
10/22/2021 19:00 to 18:10 5.08679 5.08656 5.08591 5.08467 5.08168 5.08147
10/22/2021 18:00 to 17:10 5.08328 5.07952 5.07777 5.07794 5.07524 5.07575
10/22/2021 17:00 to 16:10 5.07434 5.07036 5.07084 5.07265 5.07047 5.06793
10/22/2021 16:00 to 15:10 5.06796 5.06563 5.06685 5.06414 5.06486 5.06359
10/22/2021 15:00 to 14:10 5.06305 5.06227 5.06220 5.06153 5.06108 5.06067
10/22/2021 14:00 to 13:10 5.06034 5.06020 5.06024 5.05991 5.06007 5.05937
10/22/2021 13:00 to 12:10 5.05962 5.06030 5.06103 5.06053 5.06080 5.05918
10/22/2021 12:00 to 11:10 5.05945 5.05918 5.05951 5.05933 5.06001 5.05861
10/22/2021 11:00 to 10:10 5.05922 5.05949 5.06072 5.06154 5.06121 5.06130
10/22/2021 10:00 to 9:10 5.06265 5.06205 5.06178 5.06290 5.06253 5.06086
10/22/2021 09:00 to 8:10 5.06094 5.06066 5.06085 5.06073 5.06188 5.06208
10/22/2021 08:00 to 7:10 5.06230 5.06236 5.06241 5.06174 5.06136 5.06200
10/22/2021 07:00 to 6:10 5.06084 5.06185 5.06137 5.06179 5.06312 5.06259
10/22/2021 06:00 to 5:10 5.06307 5.06282 5.06295 5.06209 5.05895 5.05998
10/22/2021 05:00 to 4:10 5.06079 5.06079 5.06028 5.05833 5.05965 5.05955
10/22/2021 04:00 to 3:10 5.05922 5.05915 5.05807 5.05875 5.05797 5.05826
10/22/2021 03:00 to 2:10 5.05915 5.06025 5.05912 5.05991 5.06080 5.06008
10/22/2021 02:00 to 1:10 5.06192 5.06327 5.06389 5.06440 5.06416 5.06670
10/22/2021 01:00 to 0:10 5.06400 5.06438 5.06456 5.06426 5.06565 5.06548

 

 

 

Salinity [psu]     6 entries per hour
Showing data from 10/23/2021 (06:50:00 Z) to 10/22/2021 (00:00:01 Z)
Previous Next [ Day | 3-Days | 7-Days ]
First Last
Prev [ Day | 3-Days | 7-Days ] Next
First Last

Start Time:     :
End Time:     :     
Time (in GMT) :00 :50 :40 :30 :20 :10
Previous Next [ Day | 3-Days | 7-Days ]
First Last
Prev [ Day | 3-Days | 7-Days ] Next
First Last


123 => good data
MM => data is determined as missing
-- => data not received/configured
Back to Top Back to Top
10/23/2021 07:00 to 6:10 -- 35.01 35.00 35.01 35.01 35.01
10/23/2021 06:00 to 5:10 35.01 35.00 35.00 35.01 35.01 35.01
10/23/2021 05:00 to 4:10 35.00 35.01 35.01 35.01 35.01 35.01
10/23/2021 04:00 to 3:10 35.01 35.00 35.00 35.00 35.00 35.00
10/23/2021 03:00 to 2:10 35.01 35.00 35.01 35.01 35.01 35.00
10/23/2021 02:00 to 1:10 35.00 35.01 35.00 35.01 35.01 35.00
10/23/2021 01:00 to 0:10 35.01 35.01 35.01 35.01 35.00 35.01
10/23/2021 00:00 to 23:10 35.01 35.01 35.01 35.01 35.01 35.00
10/22/2021 23:00 to 22:10 35.00 35.01 35.01 35.01 35.01 35.00
10/22/2021 22:00 to 21:10 35.01 35.00 35.00 35.00 35.00 35.00
10/22/2021 21:00 to 20:10 35.01 35.00 35.00 35.00 35.00 35.00
10/22/2021 20:00 to 19:10 35.00 35.00 35.00 35.00 35.00 35.00
10/22/2021 19:00 to 18:10 35.00 35.00 35.00 35.00 35.00 35.00
10/22/2021 18:00 to 17:10 34.99 35.00 35.00 35.00 35.00 35.00
10/22/2021 17:00 to 16:10 35.00 35.00 35.00 35.00 35.00 35.00
10/22/2021 16:00 to 15:10 34.99 34.99 34.99 34.99 34.99 34.99
10/22/2021 15:00 to 14:10 34.99 34.99 34.99 34.99 34.99 34.99
10/22/2021 14:00 to 13:10 34.99 34.99 34.99 34.99 34.99 34.99
10/22/2021 13:00 to 12:10 34.99 34.99 34.99 34.99 34.99 34.99
10/22/2021 12:00 to 11:10 34.99 34.99 34.98 34.98 34.99 34.98
10/22/2021 11:00 to 10:10 34.98 34.98 34.99 34.99 34.99 34.99
10/22/2021 10:00 to 9:10 34.99 34.99 34.99 34.99 34.99 34.99
10/22/2021 09:00 to 8:10 34.98 34.98 34.99 34.98 34.98 34.98
10/22/2021 08:00 to 7:10 34.98 34.98 34.98 34.98 34.98 34.98
10/22/2021 07:00 to 6:10 34.98 34.98 34.98 34.98 34.98 34.98
10/22/2021 06:00 to 5:10 34.98 34.98 34.98 34.98 34.98 34.98
10/22/2021 05:00 to 4:10 34.98 34.98 34.98 34.98 34.98 34.98
10/22/2021 04:00 to 3:10 34.98 34.98 34.98 34.98 34.98 34.98
10/22/2021 03:00 to 2:10 34.98 34.98 34.97 34.98 34.98 34.98
10/22/2021 02:00 to 1:10 34.98 34.98 34.98 34.98 34.98 34.98
10/22/2021 01:00 to 0:10 34.98 34.98 34.98 34.97 34.97 34.98